sensor_id;sensor_type;location;lat;lon;timestamp;pressure;altitude;pressure_sealevel;temperature;humidity
71857;BME280;63344;46.980;28.882;2023-06-14T00:00:49;100490.50;;;17.24;77.97
71857;BME280;63344;46.980;28.882;2023-06-14T00:03:40;100488.84;;;17.21;77.88
71857;BME280;63344;46.980;28.882;2023-06-14T00:06:26;100492.63;;;17.19;78.24
71857;BME280;63344;46.980;28.882;2023-06-14T00:09:29;100493.59;;;17.18;77.66
71857;BME280;63344;46.980;28.882;2023-06-14T00:12:03;100490.16;;;17.16;78.19
71857;BME280;63344;46.980;28.882;2023-06-14T00:14:57;100491.00;;;17.16;78.12
71857;BME280;63344;46.980;28.882;2023-06-14T00:18:26;100491.09;;;17.15;77.62
71857;BME280;63344;46.980;28.882;2023-06-14T00:21:12;100488.44;;;17.15;78.18
71857;BME280;63344;46.980;28.882;2023-06-14T00:23:52;100484.88;;;17.14;78.26
71857;BME280;63344;46.980;28.882;2023-06-14T00:26:28;100489.19;;;17.17;77.79
71857;BME280;63344;46.980;28.882;2023-06-14T00:29:10;100486.41;;;17.18;78.26
71857;BME280;63344;46.980;28.882;2023-06-14T00:31:56;100480.94;;;17.20;77.95
71857;BME280;63344;46.980;28.882;2023-06-14T00:34:44;100475.44;;;17.21;77.86
71857;BME280;63344;46.980;28.882;2023-06-14T00:37:31;100477.16;;;17.22;77.83
71857;BME280;63344;46.980;28.882;2023-06-14T00:48:27;100476.41;;;17.20;77.55
71857;BME280;63344;46.980;28.882;2023-06-14T00:51:19;100480.19;;;17.18;77.40
71857;BME280;63344;46.980;28.882;2023-06-14T00:54:35;100475.66;;;17.18;77.68
71857;BME280;63344;46.980;28.882;2023-06-14T00:57:38;100472.31;;;17.15;77.21
71857;BME280;63344;46.980;28.882;2023-06-14T01:00:24;100465.34;;;17.12;77.55
71857;BME280;63344;46.980;28.882;2023-06-14T01:03:08;100457.19;;;17.14;77.61
71857;BME280;63344;46.980;28.882;2023-06-14T01:06:26;100461.69;;;17.13;77.45
71857;BME280;63344;46.980;28.882;2023-06-14T01:09:32;100464.38;;;17.13;77.52
71857;BME280;63344;46.980;28.882;2023-06-14T01:12:29;100458.25;;;17.11;77.40
71857;BME280;63344;46.980;28.882;2023-06-14T01:15:27;100452.13;;;17.09;77.49
71857;BME280;63344;46.980;28.882;2023-06-14T01:18:12;100451.38;;;17.07;77.57
71857;BME280;63344;46.980;28.882;2023-06-14T01:21:19;100462.19;;;17.05;77.87
71857;BME280;63344;46.980;28.882;2023-06-14T01:23:57;100461.44;;;17.03;78.14
71857;BME280;63344;46.980;28.882;2023-06-14T01:26:45;100460.59;;;17.03;78.20
71857;BME280;63344;46.980;28.882;2023-06-14T01:29:43;100461.59;;;17.02;78.40
71857;BME280;63344;46.980;28.882;2023-06-14T01:32:35;100462.44;;;17.02;77.90
71857;BME280;63344;46.980;28.882;2023-06-14T01:35:24;100462.44;;;17.02;78.19
71857;BME280;63344;46.980;28.882;2023-06-14T01:38:02;100467.81;;;17.02;78.42
71857;BME280;63344;46.980;28.882;2023-06-14T01:40:36;100467.81;;;17.02;78.15
71857;BME280;63344;46.980;28.882;2023-06-14T01:43:10;100471.34;;;17.03;78.29
71857;BME280;63344;46.980;28.882;2023-06-14T01:46:05;100479.47;;;17.01;78.26
71857;BME280;63344;46.980;28.882;2023-06-14T01:49:22;100482.16;;;17.01;78.70
71857;BME280;63344;46.980;28.882;2023-06-14T01:51:54;100487.53;;;17.01;78.76
71857;BME280;63344;46.980;28.882;2023-06-14T01:54:46;100477.97;;;16.97;78.98
71857;BME280;63344;46.980;28.882;2023-06-14T01:57:17;100475.41;;;16.96;79.07
71857;BME280;63344;46.980;28.882;2023-06-14T02:00:11;100480.13;;;16.92;79.00
71857;BME280;63344;46.980;28.882;2023-06-14T02:02:44;100489.13;;;16.91;79.16
71857;BME280;63344;46.980;28.882;2023-06-14T02:05:25;100490.09;;;16.90;79.75
71857;BME280;63344;46.980;28.882;2023-06-14T02:08:22;100490.94;;;16.90;79.64
71857;BME280;63344;46.980;28.882;2023-06-14T02:10:59;100493.72;;;16.89;79.49
71857;BME280;63344;46.980;28.882;2023-06-14T02:13:43;100489.25;;;16.89;80.20
71857;BME280;63344;46.980;28.882;2023-06-14T02:16:33;100490.19;;;16.88;80.06
71857;BME280;63344;46.980;28.882;2023-06-14T02:19:16;100481.28;;;16.88;80.34
71857;BME280;63344;46.980;28.882;2023-06-14T02:21:56;100483.22;;;16.86;80.53
71857;BME280;63344;46.980;28.882;2023-06-14T02:24:47;100487.94;;;16.82;80.97
71857;BME280;63344;46.980;28.882;2023-06-14T02:27:29;100490.78;;;16.79;81.66
71857;BME280;63344;46.980;28.882;2023-06-14T02:30:23;100488.41;;;16.75;81.92
71857;BME280;63344;46.980;28.882;2023-06-14T02:33:19;100483.38;;;16.70;82.88
71857;BME280;63344;46.980;28.882;2023-06-14T02:36:25;100498.44;;;16.58;83.28
71857;BME280;63344;46.980;28.882;2023-06-14T02:39:10;100493.56;;;16.50;84.27
71857;BME280;63344;46.980;28.882;2023-06-14T02:41:57;100491.97;;;16.48;84.82
71857;BME280;63344;46.980;28.882;2023-06-14T02:44:45;100495.81;;;16.44;85.42
71857;BME280;63344;46.980;28.882;2023-06-14T02:47:26;100492.38;;;16.42;85.56
71857;BME280;63344;46.980;28.882;2023-06-14T02:50:09;100496.00;;;16.41;85.92
71857;BME280;63344;46.980;28.882;2023-06-14T02:53:07;100503.09;;;16.42;85.69
71857;BME280;63344;46.980;28.882;2023-06-14T03:00:06;100501.16;;;16.44;85.71
71857;BME280;63344;46.980;28.882;2023-06-14T03:03:01;100503.72;;;16.45;86.03
71857;BME280;63344;46.980;28.882;2023-06-14T03:05:34;100506.41;;;16.45;85.56
71857;BME280;63344;46.980;28.882;2023-06-14T03:08:48;100503.84;;;16.44;85.83
71857;BME280;63344;46.980;28.882;2023-06-14T03:11:44;100512.66;;;16.46;85.56
71857;BME280;63344;46.980;28.882;2023-06-14T03:15:08;100513.69;;;16.43;85.96
71857;BME280;63344;46.980;28.882;2023-06-14T03:17:55;100516.38;;;16.43;86.14
71857;BME280;63344;46.980;28.882;2023-06-14T03:20:49;100516.28;;;16.45;86.34
71857;BME280;63344;46.980;28.882;2023-06-14T03:23:40;100523.66;;;16.41;86.12
71857;BME280;63344;46.980;28.882;2023-06-14T03:26:10;100525.28;;;16.44;86.29
71857;BME280;63344;46.980;28.882;2023-06-14T03:33:36;100537.41;;;16.49;86.78
71857;BME280;63344;46.980;28.882;2023-06-14T03:36:33;100530.44;;;16.47;86.89
71857;BME280;63344;46.980;28.882;2023-06-14T03:39:21;100536.13;;;16.42;87.71
71857;BME280;63344;46.980;28.882;2023-06-14T03:42:45;100528.25;;;16.39;87.61
71857;BME280;63344;46.980;28.882;2023-06-14T03:45:19;100525.88;;;16.35;88.43
71857;BME280;63344;46.980;28.882;2023-06-14T03:48:08;100522.75;;;16.28;88.93
71857;BME280;63344;46.980;28.882;2023-06-14T03:51:04;100524.75;;;16.24;88.97
71857;BME280;63344;46.980;28.882;2023-06-14T03:53:43;100536.31;;;16.25;89.15
71857;BME280;63344;46.980;28.882;2023-06-14T03:57:19;100539.00;;;16.25;89.59
71857;BME280;63344;46.980;28.882;2023-06-14T04:00:26;100533.88;;;16.22;90.26
71857;BME280;63344;46.980;28.882;2023-06-14T04:16:14;100540.84;;;16.24;91.67
71857;BME280;63344;46.980;28.882;2023-06-14T04:19:48;100541.59;;;16.26;91.85
71857;BME280;63344;46.980;28.882;2023-06-14T04:39:46;100550.34;;;16.16;93.82
71857;BME280;63344;46.980;28.882;2023-06-14T04:43:12;100542.47;;;16.12;94.66
71857;BME280;63344;46.980;28.882;2023-06-14T04:51:17;100552.53;;;16.09;95.30
71857;BME280;63344;46.980;28.882;2023-06-14T04:55:08;100550.44;;;16.14;95.53
71857;BME280;63344;46.980;28.882;2023-06-14T04:59:26;100553.66;;;16.19;95.51
71857;BME280;63344;46.980;28.882;2023-06-14T05:54:50;100582.00;;;16.65;94.39
71857;BME280;63344;46.980;28.882;2023-06-14T05:58:51;100575.72;;;16.66;94.24
71857;BME280;63344;46.980;28.882;2023-06-14T06:11:21;100583.00;;;16.64;94.28
71857;BME280;63344;46.980;28.882;2023-06-14T06:45:06;100579.22;;;17.08;94.40
71857;BME280;63344;46.980;28.882;2023-06-14T06:49:06;100584.72;;;17.19;94.06
71857;BME280;63344;46.980;28.882;2023-06-14T07:15:42;100594.31;;;18.64;89.67
71857;BME280;63344;46.980;28.882;2023-06-14T07:19:13;100591.28;;;18.69;87.57
71857;BME280;63344;46.980;28.882;2023-06-14T07:23:16;100591.22;;;18.95;86.86
71857;BME280;63344;46.980;28.882;2023-06-14T07:27:25;100598.09;;;19.23;83.22
71857;BME280;63344;46.980;28.882;2023-06-14T07:31:34;100600.13;;;19.08;82.01
71857;BME280;63344;46.980;28.882;2023-06-14T07:35:26;100596.88;;;19.27;81.25
71857;BME280;63344;46.980;28.882;2023-06-14T07:38:31;100593.13;;;19.41;79.29
71857;BME280;63344;46.980;28.882;2023-06-14T08:13:45;100590.47;;;21.42;72.22
71857;BME280;63344;46.980;28.882;2023-06-14T11:14:45;100544.91;;;25.70;52.63
71857;BME280;63344;46.980;28.882;2023-06-14T11:35:48;100543.94;;;26.06;51.43
71857;BME280;63344;46.980;28.882;2023-06-14T12:06:16;100536.22;;;25.93;50.14
71857;BME280;63344;46.980;28.882;2023-06-14T13:16:41;100504.34;;;24.61;51.84
71857;BME280;63344;46.980;28.882;2023-06-14T13:34:16;100499.38;;;24.92;53.00
71857;BME280;63344;46.980;28.882;2023-06-14T13:38:16;100497.75;;;24.99;52.88
71857;BME280;63344;46.980;28.882;2023-06-14T13:41:55;100483.25;;;25.27;52.51
71857;BME280;63344;46.980;28.882;2023-06-14T14:07:37;100482.66;;;25.67;50.11
71857;BME280;63344;46.980;28.882;2023-06-14T14:11:31;100469.34;;;25.64;50.72
71857;BME280;63344;46.980;28.882;2023-06-14T14:23:42;100470.03;;;26.27;48.67
71857;BME280;63344;46.980;28.882;2023-06-14T14:49:23;100454.38;;;25.60;48.32
71857;BME280;63344;46.980;28.882;2023-06-14T15:14:40;100464.56;;;25.58;49.50
71857;BME280;63344;46.980;28.882;2023-06-14T15:58:10;100461.09;;;25.48;50.79
71857;BME280;63344;46.980;28.882;2023-06-14T16:32:45;100453.50;;;24.89;52.07
71857;BME280;63344;46.980;28.882;2023-06-14T18:00:30;100501.13;;;22.96;58.65
71857;BME280;63344;46.980;28.882;2023-06-14T18:39:09;100527.94;;;21.89;62.43
71857;BME280;63344;46.980;28.882;2023-06-14T18:43:42;100532.09;;;21.72;62.83
71857;BME280;63344;46.980;28.882;2023-06-14T18:51:26;100535.56;;;21.42;64.50
71857;BME280;63344;46.980;28.882;2023-06-14T18:54:39;100542.88;;;21.30;65.39
71857;BME280;63344;46.980;28.882;2023-06-14T19:02:27;100553.84;;;20.96;67.05
71857;BME280;63344;46.980;28.882;2023-06-14T19:28:11;100565.97;;;20.24;70.20
71857;BME280;63344;46.980;28.882;2023-06-14T19:32:03;100564.16;;;20.14;70.91
71857;BME280;63344;46.980;28.882;2023-06-14T19:39:46;100575.78;;;19.92;71.67
71857;BME280;63344;46.980;28.882;2023-06-14T19:43:19;100583.97;;;19.79;72.49
71857;BME280;63344;46.980;28.882;2023-06-14T20:04:29;100590.81;;;19.36;74.02
71857;BME280;63344;46.980;28.882;2023-06-14T20:11:52;100587.56;;;19.20;75.75
71857;BME280;63344;46.980;28.882;2023-06-14T20:15:13;100587.75;;;19.05;75.93
71857;BME280;63344;46.980;28.882;2023-06-14T20:21:47;100585.00;;;18.94;76.23
71857;BME280;63344;46.980;28.882;2023-06-14T20:24:35;100586.94;;;18.92;76.30
71857;BME280;63344;46.980;28.882;2023-06-14T20:31:38;100581.69;;;18.78;76.71
71857;BME280;63344;46.980;28.882;2023-06-14T20:34:29;100582.00;;;18.73;77.11
71857;BME280;63344;46.980;28.882;2023-06-14T20:37:21;100590.44;;;18.68;77.41
71857;BME280;63344;46.980;28.882;2023-06-14T20:40:36;100587.34;;;18.62;77.40
71857;BME280;63344;46.980;28.882;2023-06-14T20:43:36;100601.00;;;18.59;77.57
71857;BME280;63344;46.980;28.882;2023-06-14T20:46:49;100595.75;;;18.57;77.59
71857;BME280;63344;46.980;28.882;2023-06-14T20:49:34;100590.59;;;18.54;78.11
71857;BME280;63344;46.980;28.882;2023-06-14T20:53:09;100597.06;;;18.51;78.46
71857;BME280;63344;46.980;28.882;2023-06-14T20:56:17;100598.03;;;18.50;78.33
71857;BME280;63344;46.980;28.882;2023-06-14T20:58:56;100592.00;;;18.47;78.36
71857;BME280;63344;46.980;28.882;2023-06-14T21:01:45;100590.75;;;18.40;78.79
71857;BME280;63344;46.980;28.882;2023-06-14T21:04:38;100600.84;;;18.36;79.17
71857;BME280;63344;46.980;28.882;2023-06-14T21:07:40;100598.59;;;18.30;78.94
71857;BME280;63344;46.980;28.882;2023-06-14T21:10:44;100602.38;;;18.27;79.26
71857;BME280;63344;46.980;28.882;2023-06-14T21:16:49;100603.88;;;18.19;79.34
71857;BME280;63344;46.980;28.882;2023-06-14T21:19:56;100603.22;;;18.15;79.85
71857;BME280;63344;46.980;28.882;2023-06-14T21:22:59;100604.41;;;18.11;80.01
71857;BME280;63344;46.980;28.882;2023-06-14T21:25:50;100602.81;;;18.08;80.00
71857;BME280;63344;46.980;28.882;2023-06-14T21:28:47;100599.59;;;18.03;80.99
71857;BME280;63344;46.980;28.882;2023-06-14T21:31:55;100607.97;;;17.99;80.69
71857;BME280;63344;46.980;28.882;2023-06-14T21:34:55;100603.59;;;17.98;81.33
71857;BME280;63344;46.980;28.882;2023-06-14T21:38:05;100602.69;;;17.97;81.43
71857;BME280;63344;46.980;28.882;2023-06-14T21:40:53;100598.41;;;17.95;81.59
71857;BME280;63344;46.980;28.882;2023-06-14T21:43:44;100608.22;;;17.96;81.75
71857;BME280;63344;46.980;28.882;2023-06-14T21:46:55;100605.50;;;17.96;81.59
71857;BME280;63344;46.980;28.882;2023-06-14T21:50:05;100604.44;;;17.98;81.89
71857;BME280;63344;46.980;28.882;2023-06-14T21:52:41;100601.66;;;18.00;82.29
71857;BME280;63344;46.980;28.882;2023-06-14T21:56:02;100600.00;;;17.97;81.97
71857;BME280;63344;46.980;28.882;2023-06-14T21:58:57;100607.22;;;17.97;82.64
71857;BME280;63344;46.980;28.882;2023-06-14T22:01:33;100600.91;;;17.98;82.92
71857;BME280;63344;46.980;28.882;2023-06-14T22:04:41;100602.59;;;17.99;83.05
71857;BME280;63344;46.980;28.882;2023-06-14T22:07:19;100600.75;;;17.99;82.81
71857;BME280;63344;46.980;28.882;2023-06-14T22:10:19;100596.03;;;18.03;82.66
71857;BME280;63344;46.980;28.882;2023-06-14T22:13:10;100595.94;;;18.04;82.28
71857;BME280;63344;46.980;28.882;2023-06-14T22:15:52;100605.41;;;18.10;82.64
71857;BME280;63344;46.980;28.882;2023-06-14T22:18:46;100596.16;;;18.14;82.05
71857;BME280;63344;46.980;28.882;2023-06-14T22:21:37;100603.78;;;18.20;82.02
71857;BME280;63344;46.980;28.882;2023-06-14T22:24:18;100597.22;;;18.24;82.08
71857;BME280;63344;46.980;28.882;2023-06-14T22:26:59;100599.69;;;18.27;81.53
71857;BME280;63344;46.980;28.882;2023-06-14T22:29:53;100597.50;;;18.33;81.61
71857;BME280;63344;46.980;28.882;2023-06-14T22:32:33;100597.41;;;18.34;81.57
71857;BME280;63344;46.980;28.882;2023-06-14T22:35:22;100597.31;;;18.36;81.74
71857;BME280;63344;46.980;28.882;2023-06-14T22:37:59;100592.69;;;18.38;81.18
71857;BME280;63344;46.980;28.882;2023-06-14T22:40:44;100590.94;;;18.37;81.41
71857;BME280;63344;46.980;28.882;2023-06-14T22:43:27;100593.75;;;18.35;81.60
71857;BME280;63344;46.980;28.882;2023-06-14T22:45:59;100589.34;;;18.34;81.24
71857;BME280;63344;46.980;28.882;2023-06-14T22:49:15;100590.44;;;18.31;81.55
71857;BME280;63344;46.980;28.882;2023-06-14T22:51:54;100591.38;;;18.30;81.01
71857;BME280;63344;46.980;28.882;2023-06-14T22:55:05;100586.88;;;18.31;81.29
71857;BME280;63344;46.980;28.882;2023-06-14T22:58:06;100587.50;;;18.35;81.11
71857;BME280;63344;46.980;28.882;2023-06-14T23:00:58;100586.66;;;18.34;81.22
71857;BME280;63344;46.980;28.882;2023-06-14T23:03:35;100576.84;;;18.33;80.71
71857;BME280;63344;46.980;28.882;2023-06-14T23:06:16;100586.00;;;18.30;81.29
71857;BME280;63344;46.980;28.882;2023-06-14T23:09:12;100582.81;;;18.25;80.95
71857;BME280;63344;46.980;28.882;2023-06-14T23:12:31;100589.38;;;18.21;81.36
71857;BME280;63344;46.980;28.882;2023-06-14T23:15:31;100585.16;;;18.17;81.65
71857;BME280;63344;46.980;28.882;2023-06-14T23:18:25;100586.34;;;18.13;81.24
71857;BME280;63344;46.980;28.882;2023-06-14T23:21:01;100584.84;;;18.09;81.86
71857;BME280;63344;46.980;28.882;2023-06-14T23:23:58;100580.66;;;18.05;81.89
71857;BME280;63344;46.980;28.882;2023-06-14T23:27:23;100578.97;;;18.04;81.94
71857;BME280;63344;46.980;28.882;2023-06-14T23:30:20;100574.44;;;18.04;81.86
71857;BME280;63344;46.980;28.882;2023-06-14T23:33:25;100579.81;;;18.04;81.53
71857;BME280;63344;46.980;28.882;2023-06-14T23:36:28;100571.84;;;18.03;81.52
71857;BME280;63344;46.980;28.882;2023-06-14T23:39:19;100572.94;;;18.00;81.67
71857;BME280;63344;46.980;28.882;2023-06-14T23:41:57;100573.88;;;17.99;81.84
71857;BME280;63344;46.980;28.882;2023-06-14T23:44:48;100578.75;;;17.94;82.25
71857;BME280;63344;46.980;28.882;2023-06-14T23:47:23;100581.63;;;17.91;81.74
71857;BME280;63344;46.980;28.882;2023-06-14T23:50:07;100575.75;;;17.86;82.32
71857;BME280;63344;46.980;28.882;2023-06-14T23:53:22;100576.00;;;17.81;82.59
71857;BME280;63344;46.980;28.882;2023-06-14T23:56:43;100572.91;;;17.75;82.81
71857;BME280;63344;46.980;28.882;2023-06-14T23:59:22;100576.00;;;17.68;82.78
